Valley Falls, KS (66088)

3:52 AM CST on February 12, 2016 (GMT -0600)
Lakeridge | | Change Station
CLOSE
Current Station
Personal Weather Station
Location: Ozawkie, KS
Elevation: 1023 ft
Nearby Weather Stations

Elev 1023 ft 39.16 °N, 95.48 °W | Updated 7 seconds ago

Partly Cloudy
Partly Cloudy
25.9 °F
Feels Like 26 °F
N
2.2
Wind Variable Wind from North
Gusts 2.2 mph

Today
High -- | Low -- °F
--% Chance of Precip.
Yesterday
High -- | Low -- °F
Precip. -- in
Pressure 30.21 in
Visibility 10.0 miles
Clouds Overcast 2800 ft
Windchill 26 °F
Dew Point 18 °F
Humidity 71%
Rainfall 0.00 in
Snow Depth Not available.
7:17 AM 5:54 PM
Waxing Crescent, 19% visible
SPECI KTOP 120928Z AUTO 34003KT 10SM OVC028 M02/M05 A3021 RMK AO2 T10171050 TSNO
Pressure 30.21 in
Visibility 10.0 miles
Clouds Overcast 2800 ft
Windchill 26 °F
Dew Point 18 °F
Humidity 71%
Rainfall 0.00 in
Snow Depth Not available.
7:17 AM 5:54 PM
Waxing Crescent, 19% visible
SPECI KTOP 120928Z AUTO 34003KT 10SM OVC028 M02/M05 A3021 RMK AO2 T10171050 TSNO

10-Day Weather Forecast

Almanac

Astronomy

Feb. 12, 2016 Rise Set
Actual Time
Civil Twilight
Nautical Twilight
Astronomical Twilight
Moon
Length of Visible Light
Length of Day
Tomorrow will be .
, % of the Moon is Illuminated

Today's Extremes

State Highs State Lows

Community

WunderPhotos

Upload Photos

1,892,286 photos uploaded!

WunderBlog® & News

Nearby

Air Quality

  Air Quality AQ Index Pollutant
Not available.

Snow Depth

Station Depth Elevation

Earthquake Activity

City Distance Mag. Time & Date
Minimum magnitude displayed is 2.5.

Coastal Water Temperatures

Place Temperature

Stations

Nearby Weather Stations

Station Location Temp. Windchill Dew Point Humidity Wind Precip. Elev Updated Type
                   

Watches & Warnings

There are currently no watches in effect.